• Join FlightAware (Why Join?)
  • Login
  • US Flag 
04:15PM EST


 

Airport Tracker/Info


-or-


 

Live Flight TrackerFlight Track Log ✈ EJA982 ✈ 27-Apr-2013 ✈ KOAK - KLAS

Flight Track Log - Related Links

Times and Time Zones

All times are in EDT time to prevent confusion due to time zone crossing. See the EJA982 flight status page for this flight to view local times or setup timezone preferences in your user account.

Time Position Orientation Groundspeed Altitude Reporting Facility
EDT Latitude Longitude Course Direction KTS MPH feet Rate Location/Type
10:30PM 37.7494 -122.3097 224° Southwest 206 237 4,200  Level Oakland Center
10:31PM 37.7028 -122.3669 224° Southwest 252 290 7,700 3,885 Climbing Oakland Center
10:32PM 37.6231 -122.3936 195° South 293 337 12,100 3,098 Climbing Oakland Center
10:33PM 37.5444 -122.3308 148° Southeast 380 437 14,000 2,016 Climbing Oakland Center
10:34PM 37.5097 -122.2011 109° East 396 456 16,200 2,115 Climbing Oakland Center
10:35PM 37.4758 -122.0647 107° East 411 473 18,300 2,132 Climbing Oakland Center
10:36PM 37.4403 -121.9247 108° East 420 483 20,500 2,182 Climbing Oakland Center
10:37PM 37.4053 -121.7811 107° East 429 494 22,700 2,213 Climbing Oakland Center
10:38PM 37.3689 -121.6383 108° East 432 497 25,000 1,869 Climbing Oakland Center
10:39PM 37.3289 -121.4803 108° East 447 514 26,500 984 Climbing Oakland Center
10:40PM 37.2881 -121.3242 108° East 469 540 27,000 246 Climbing Oakland Center
10:41PM 37.2456 -121.1586 108° East 495 570 27,000  Level Oakland Center
10:42PM 37.2019 -120.9928 108° East 502 578 27,000  Level Oakland Center
10:43PM 37.1589 -120.8253 108° East 506 582 27,000  Level Oakland Center
10:44PM 37.1208 -120.6586 106° East 503 579 27,000  Level Oakland Center
10:45PM 37.1092 -120.4836 95° East 513 590 27,000  Level Oakland Center
10:46PM 37.0989 -120.3092 94° East 508 585 27,000  Level Oakland Center
10:47PM 37.0825 -120.1064 96° East 507 583 27,000  Level Oakland Center
10:48PM 37.0733 -119.9511 94° East 507 583 27,000  Level Oakland Center
10:49PM 37.0611 -119.7753 95° East 507 583 27,000  Level Oakland Center
10:50PM 37.0486 -119.5992 95° East 508 585 27,000  Level Oakland Center
10:51PM 37.0356 -119.4228 95° East 509 586 27,000  Level Oakland Center
10:52PM 37.0222 -119.2467 95° East 509 586 27,000  Level Oakland Center
10:53PM 37.0061 -119.0358 95° East 508 585 27,000  Level Oakland Center
10:54PM 36.9917 -118.8589 96° East 510 587 27,000  Level Oakland Center
10:55PM 36.9764 -118.6836 96° East 508 585 27,000  Level Oakland Center
10:57PM 36.9625 -118.5075 96° East 509 586 27,000  Level Oakland Center
10:58PM 36.9492 -118.3567 96° East 508 585 27,000  Level Oakland Center
10:58PM 36.9433 -118.2869 96° East 506 582 27,000  Level Los Angeles Center
10:59PM 36.9294 -118.1136 96° East 504 580 27,000  Level Los Angeles Center
11:00PM 36.9136 -117.9392 96° East 505 581 27,000  Level Los Angeles Center
11:01PM 36.8978 -117.7661 96° East 505 581 27,000  Level Los Angeles Center
11:02PM 36.8825 -117.5947 96° East 503 579 27,000  Level Los Angeles Center
11:03PM 36.8633 -117.3906 97° East 500 575 27,000  Level Los Angeles Center
11:04PM 36.8469 -117.2194 97° East 499 574 27,000  Level Los Angeles Center
11:05PM 36.8314 -117.0581 97° East 490 564 27,000  Level Los Angeles Center
11:06PM 36.8175 -116.9189 97° East 437 503 27,000  Level Los Angeles Center
11:07PM 36.8008 -116.7706 98° East 431 496 27,000  Level Los Angeles Center
11:08PM 36.7303 -116.6453 125° Southeast 442 509 27,000  Level Los Angeles Center
11:09PM 36.6506 -116.5314 131° Southeast 439 505 27,000 -148 Level Los Angeles Center
11:10PM 36.5706 -116.4197 132° Southeast 435 501 26,700 -1,279 Descending Los Angeles Center
11:11PM 36.4908 -116.3069 131° Southeast 432 497 24,400 -2,361 Descending Los Angeles Center
11:12PM 36.4042 -116.1856 132° Southeast 428 493 21,900 -2,244 Descending Los Angeles Center
11:13PM 36.3314 -116.0819 131° Southeast 402 463 19,800 -2,000 Descending Los Angeles Center
11:14PM 36.2475 -115.9719 133° Southeast 354 407 17,500 -1,869 Descending Los Angeles Center
11:15PM 36.1994 -115.8967 128° Southeast 340 391 16,000 -1,434 Descending Los Angeles Center
11:16PM 36.1658 -115.7956 112° Southeast 319 367 14,800 -1,082 Descending Los Angeles Center
11:17PM 36.1317 -115.6892 112° Southeast 309 356 13,800 -878 Descending Los Angeles Center
11:18PM 36.1014 -115.5939 111° Southeast 296 341 13,000 -732 Descending Los Angeles Center
11:19PM 36.0742 -115.5106 112° Southeast 293 337 12,300 -787 Descending Los Angeles Center
11:20PM 36.0444 -115.4178 112° Southeast 292 336 11,400 -1,082 Descending Los Angeles Center
11:21PM 36.0253 -115.3031 102° East 292 336 10,100 -1,131 Descending Los Angeles Center
11:22PM 36.0206 -115.2108 94° East 281 323 9,100 -1,024 Descending Los Angeles Center
11:23PM 36.0142 -115.1233 95° East 269 310 8,000 -634 Descending Los Angeles Center
11:24PM 36.0094 -115.0492 94° East 243 280 7,800 -639 Descending Los Angeles Center
11:25PM 36.0144 -114.9875 84° East 207 238 6,700 -1,426 Descending Los Angeles Center
11:26PM 36.0644 -114.9928 355° North 191 220 4,900 -1,561 Descending Los Angeles Center
11:27PM 36.0750 -115.0492 283° West 176 203 3,500 -1,171 Descending Los Angeles Center
11:28PM 36.0744 -115.0989 269° West 158 182 2,500 -738 Descending Los Angeles Center
11:29PM 36.0742 -115.1503 270° West 149 171 2,000 -492 Descending Los Angeles Center
11:31PM 36.0801 -115.1523 95° East  Level Estimated